sensor_id;sensor_type;location;lat;lon;timestamp;temperature;humidity
13754;DHT22;6948;51.216;6.778;2023-05-19T00:02:10;13.00;99.90
13754;DHT22;6948;51.216;6.778;2023-05-19T00:04:36;13.00;99.90
13754;DHT22;6948;51.216;6.778;2023-05-19T00:07:02;13.00;99.90
13754;DHT22;6948;51.216;6.778;2023-05-19T00:09:30;13.00;99.90
13754;DHT22;6948;51.216;6.778;2023-05-19T00:11:55;13.00;99.90
13754;DHT22;6948;51.216;6.778;2023-05-19T00:14:21;13.00;99.90
13754;DHT22;6948;51.216;6.778;2023-05-19T00:16:47;12.90;99.90
13754;DHT22;6948;51.216;6.778;2023-05-19T00:19:13;12.80;99.90
13754;DHT22;6948;51.216;6.778;2023-05-19T00:21:39;12.80;99.90
13754;DHT22;6948;51.216;6.778;2023-05-19T00:24:05;12.90;99.90
13754;DHT22;6948;51.216;6.778;2023-05-19T00:26:31;12.80;99.90
13754;DHT22;6948;51.216;6.778;2023-05-19T00:28:57;12.90;99.90
13754;DHT22;6948;51.216;6.778;2023-05-19T00:31:23;12.80;99.90
13754;DHT22;6948;51.216;6.778;2023-05-19T00:33:48;12.70;99.90
13754;DHT22;6948;51.216;6.778;2023-05-19T00:36:14;12.70;99.90
13754;DHT22;6948;51.216;6.778;2023-05-19T00:38:39;12.70;99.90
13754;DHT22;6948;51.216;6.778;2023-05-19T00:41:05;12.70;99.90
13754;DHT22;6948;51.216;6.778;2023-05-19T00:43:32;12.70;99.90
13754;DHT22;6948;51.216;6.778;2023-05-19T00:45:59;12.70;99.90
13754;DHT22;6948;51.216;6.778;2023-05-19T00:48:25;12.70;99.90
13754;DHT22;6948;51.216;6.778;2023-05-19T00:50:54;12.70;99.90
13754;DHT22;6948;51.216;6.778;2023-05-19T00:53:20;12.70;99.90
13754;DHT22;6948;51.216;6.778;2023-05-19T00:55:47;12.70;99.90
13754;DHT22;6948;51.216;6.778;2023-05-19T00:58:14;12.70;99.90
13754;DHT22;6948;51.216;6.778;2023-05-19T01:00:40;12.70;99.90
13754;DHT22;6948;51.216;6.778;2023-05-19T01:03:07;12.70;99.90
13754;DHT22;6948;51.216;6.778;2023-05-19T01:05:38;12.60;99.90
13754;DHT22;6948;51.216;6.778;2023-05-19T01:08:04;12.60;99.90
13754;DHT22;6948;51.216;6.778;2023-05-19T01:10:30;12.50;99.90
13754;DHT22;6948;51.216;6.778;2023-05-19T01:12:56;12.50;99.90
13754;DHT22;6948;51.216;6.778;2023-05-19T01:15:22;12.40;99.90
13754;DHT22;6948;51.216;6.778;2023-05-19T01:20:37;12.40;99.90
13754;DHT22;6948;51.216;6.778;2023-05-19T01:31:16;12.30;99.90
13754;DHT22;6948;51.216;6.778;2023-05-19T01:33:45;12.30;99.90
13754;DHT22;6948;51.216;6.778;2023-05-19T01:36:14;12.20;99.90
13754;DHT22;6948;51.216;6.778;2023-05-19T01:38:39;12.30;99.90
13754;DHT22;6948;51.216;6.778;2023-05-19T01:41:07;12.20;99.90
13754;DHT22;6948;51.216;6.778;2023-05-19T01:43:34;12.10;99.90
13754;DHT22;6948;51.216;6.778;2023-05-19T01:46:01;12.10;99.90
13754;DHT22;6948;51.216;6.778;2023-05-19T01:48:28;12.10;99.90
13754;DHT22;6948;51.216;6.778;2023-05-19T01:50:54;12.20;99.90
13754;DHT22;6948;51.216;6.778;2023-05-19T01:53:22;12.20;99.90
13754;DHT22;6948;51.216;6.778;2023-05-19T01:55:51;12.10;99.90
13754;DHT22;6948;51.216;6.778;2023-05-19T01:58:46;12.10;99.90
13754;DHT22;6948;51.216;6.778;2023-05-19T02:07:14;11.90;99.90
13754;DHT22;6948;51.216;6.778;2023-05-19T02:10:04;11.90;99.90
13754;DHT22;6948;51.216;6.778;2023-05-19T02:17:44;11.90;99.90
13754;DHT22;6948;51.216;6.778;2023-05-19T02:20:13;11.60;99.90
13754;DHT22;6948;51.216;6.778;2023-05-19T02:22:40;11.50;99.90
13754;DHT22;6948;51.216;6.778;2023-05-19T02:25:07;11.50;99.90
13754;DHT22;6948;51.216;6.778;2023-05-19T02:27:33;11.50;99.90
13754;DHT22;6948;51.216;6.778;2023-05-19T02:29:59;11.60;99.90
13754;DHT22;6948;51.216;6.778;2023-05-19T02:32:25;11.60;99.90
13754;DHT22;6948;51.216;6.778;2023-05-19T02:34:50;11.60;99.90
13754;DHT22;6948;51.216;6.778;2023-05-19T02:37:17;11.60;99.90
13754;DHT22;6948;51.216;6.778;2023-05-19T02:39:43;11.60;99.90
13754;DHT22;6948;51.216;6.778;2023-05-19T02:42:09;11.50;99.90
13754;DHT22;6948;51.216;6.778;2023-05-19T02:44:36;11.50;99.90
13754;DHT22;6948;51.216;6.778;2023-05-19T02:47:01;11.40;99.90
13754;DHT22;6948;51.216;6.778;2023-05-19T02:49:27;11.40;99.90
13754;DHT22;6948;51.216;6.778;2023-05-19T02:52:01;11.30;99.90
13754;DHT22;6948;51.216;6.778;2023-05-19T02:54:29;11.20;99.90
13754;DHT22;6948;51.216;6.778;2023-05-19T02:56:55;11.20;99.90
13754;DHT22;6948;51.216;6.778;2023-05-19T02:59:20;11.10;99.90
13754;DHT22;6948;51.216;6.778;2023-05-19T03:01:47;11.00;99.90
13754;DHT22;6948;51.216;6.778;2023-05-19T03:04:13;10.90;99.90
13754;DHT22;6948;51.216;6.778;2023-05-19T03:06:39;11.00;99.90
13754;DHT22;6948;51.216;6.778;2023-05-19T03:09:04;11.10;99.90
13754;DHT22;6948;51.216;6.778;2023-05-19T03:11:30;11.10;99.90
13754;DHT22;6948;51.216;6.778;2023-05-19T03:13:57;11.00;99.90
13754;DHT22;6948;51.216;6.778;2023-05-19T03:16:22;11.00;99.90
13754;DHT22;6948;51.216;6.778;2023-05-19T03:18:49;11.00;99.90
13754;DHT22;6948;51.216;6.778;2023-05-19T03:21:15;11.00;99.90
13754;DHT22;6948;51.216;6.778;2023-05-19T03:23:41;11.00;99.90
13754;DHT22;6948;51.216;6.778;2023-05-19T03:26:06;11.00;99.90
13754;DHT22;6948;51.216;6.778;2023-05-19T03:28:32;11.10;99.90
13754;DHT22;6948;51.216;6.778;2023-05-19T03:30:57;11.20;99.90
13754;DHT22;6948;51.216;6.778;2023-05-19T03:33:23;11.20;99.90
13754;DHT22;6948;51.216;6.778;2023-05-19T03:35:49;11.20;99.90
13754;DHT22;6948;51.216;6.778;2023-05-19T03:38:15;11.20;99.90
13754;DHT22;6948;51.216;6.778;2023-05-19T03:40:40;11.30;99.90
13754;DHT22;6948;51.216;6.778;2023-05-19T03:43:06;11.30;99.90
13754;DHT22;6948;51.216;6.778;2023-05-19T03:45:32;11.30;99.90
13754;DHT22;6948;51.216;6.778;2023-05-19T03:47:57;11.20;99.90
13754;DHT22;6948;51.216;6.778;2023-05-19T03:50:23;11.30;99.90
13754;DHT22;6948;51.216;6.778;2023-05-19T03:52:49;11.20;99.90
13754;DHT22;6948;51.216;6.778;2023-05-19T03:55:14;11.20;99.90
13754;DHT22;6948;51.216;6.778;2023-05-19T03:57:41;11.30;99.90
13754;DHT22;6948;51.216;6.778;2023-05-19T04:00:08;11.20;99.90
13754;DHT22;6948;51.216;6.778;2023-05-19T04:02:35;11.20;99.90
13754;DHT22;6948;51.216;6.778;2023-05-19T04:05:01;11.20;99.90
13754;DHT22;6948;51.216;6.778;2023-05-19T04:07:29;11.20;99.90
13754;DHT22;6948;51.216;6.778;2023-05-19T04:09:55;11.00;99.90
13754;DHT22;6948;51.216;6.778;2023-05-19T04:12:21;11.00;99.90
13754;DHT22;6948;51.216;6.778;2023-05-19T04:14:47;11.10;99.90
13754;DHT22;6948;51.216;6.778;2023-05-19T04:17:12;11.20;99.90
13754;DHT22;6948;51.216;6.778;2023-05-19T04:19:38;11.10;99.90
13754;DHT22;6948;51.216;6.778;2023-05-19T04:22:04;11.10;99.90
13754;DHT22;6948;51.216;6.778;2023-05-19T04:24:30;11.10;99.90
13754;DHT22;6948;51.216;6.778;2023-05-19T04:26:56;11.20;99.90
13754;DHT22;6948;51.216;6.778;2023-05-19T04:29:27;11.20;99.90
13754;DHT22;6948;51.216;6.778;2023-05-19T04:31:53;11.20;99.90
13754;DHT22;6948;51.216;6.778;2023-05-19T04:34:19;11.20;99.90
13754;DHT22;6948;51.216;6.778;2023-05-19T04:36:45;11.20;99.90
13754;DHT22;6948;51.216;6.778;2023-05-19T04:39:11;11.30;99.90
13754;DHT22;6948;51.216;6.778;2023-05-19T04:41:37;11.40;99.90
13754;DHT22;6948;51.216;6.778;2023-05-19T04:44:05;11.50;99.90
13754;DHT22;6948;51.216;6.778;2023-05-19T04:46:33;11.60;99.90
13754;DHT22;6948;51.216;6.778;2023-05-19T04:48:59;11.60;99.90
13754;DHT22;6948;51.216;6.778;2023-05-19T04:51:26;11.50;99.90
13754;DHT22;6948;51.216;6.778;2023-05-19T04:53:54;11.60;99.90
13754;DHT22;6948;51.216;6.778;2023-05-19T04:56:20;11.60;99.90
13754;DHT22;6948;51.216;6.778;2023-05-19T04:58:46;11.60;99.90
13754;DHT22;6948;51.216;6.778;2023-05-19T05:01:12;11.70;99.90
13754;DHT22;6948;51.216;6.778;2023-05-19T05:03:38;11.70;99.90
13754;DHT22;6948;51.216;6.778;2023-05-19T05:06:04;11.80;99.90
13754;DHT22;6948;51.216;6.778;2023-05-19T05:08:31;11.90;99.90
13754;DHT22;6948;51.216;6.778;2023-05-19T05:10:57;12.00;99.90
13754;DHT22;6948;51.216;6.778;2023-05-19T05:13:23;12.00;99.90
13754;DHT22;6948;51.216;6.778;2023-05-19T05:15:49;12.00;99.90
13754;DHT22;6948;51.216;6.778;2023-05-19T05:18:17;12.10;99.90
13754;DHT22;6948;51.216;6.778;2023-05-19T05:20:43;12.10;99.90
13754;DHT22;6948;51.216;6.778;2023-05-19T05:23:09;12.10;99.90
13754;DHT22;6948;51.216;6.778;2023-05-19T05:25:40;12.30;99.90
13754;DHT22;6948;51.216;6.778;2023-05-19T05:28:05;12.30;99.90
13754;DHT22;6948;51.216;6.778;2023-05-19T05:30:32;12.50;99.90
13754;DHT22;6948;51.216;6.778;2023-05-19T05:32:58;12.80;99.90
13754;DHT22;6948;51.216;6.778;2023-05-19T05:35:24;12.90;99.90
13754;DHT22;6948;51.216;6.778;2023-05-19T05:37:49;13.10;99.90
13754;DHT22;6948;51.216;6.778;2023-05-19T05:40:15;13.10;99.90
13754;DHT22;6948;51.216;6.778;2023-05-19T05:42:42;13.20;99.90
13754;DHT22;6948;51.216;6.778;2023-05-19T05:45:08;13.40;99.90
13754;DHT22;6948;51.216;6.778;2023-05-19T05:47:34;13.60;99.90
13754;DHT22;6948;51.216;6.778;2023-05-19T05:50:03;13.60;99.90
13754;DHT22;6948;51.216;6.778;2023-05-19T05:52:30;13.60;99.90
13754;DHT22;6948;51.216;6.778;2023-05-19T05:54:57;13.80;99.90
13754;DHT22;6948;51.216;6.778;2023-05-19T05:57:22;13.90;99.90
13754;DHT22;6948;51.216;6.778;2023-05-19T05:59:48;14.20;99.90
13754;DHT22;6948;51.216;6.778;2023-05-19T06:02:16;14.30;99.90
13754;DHT22;6948;51.216;6.778;2023-05-19T06:04:41;14.10;99.90
13754;DHT22;6948;51.216;6.778;2023-05-19T06:07:08;14.10;99.90
13754;DHT22;6948;51.216;6.778;2023-05-19T06:09:34;14.10;99.90
13754;DHT22;6948;51.216;6.778;2023-05-19T06:11:59;14.40;99.90
13754;DHT22;6948;51.216;6.778;2023-05-19T06:14:25;14.60;99.90
13754;DHT22;6948;51.216;6.778;2023-05-19T06:16:51;14.70;99.90
13754;DHT22;6948;51.216;6.778;2023-05-19T06:19:17;14.70;99.90
13754;DHT22;6948;51.216;6.778;2023-05-19T06:21:44;14.90;99.90
13754;DHT22;6948;51.216;6.778;2023-05-19T06:24:10;14.80;99.90
13754;DHT22;6948;51.216;6.778;2023-05-19T06:26:35;14.90;99.90
13754;DHT22;6948;51.216;6.778;2023-05-19T06:29:01;15.00;99.90
13754;DHT22;6948;51.216;6.778;2023-05-19T06:31:27;15.10;99.90
13754;DHT22;6948;51.216;6.778;2023-05-19T06:33:53;15.10;99.90
13754;DHT22;6948;51.216;6.778;2023-05-19T06:36:19;15.10;99.90
13754;DHT22;6948;51.216;6.778;2023-05-19T06:38:44;15.20;99.90
13754;DHT22;6948;51.216;6.778;2023-05-19T06:41:10;15.20;99.90
13754;DHT22;6948;51.216;6.778;2023-05-19T06:43:35;15.10;99.90
13754;DHT22;6948;51.216;6.778;2023-05-19T06:46:01;15.20;99.90
13754;DHT22;6948;51.216;6.778;2023-05-19T06:48:27;15.30;99.90
13754;DHT22;6948;51.216;6.778;2023-05-19T06:50:52;15.40;99.90
13754;DHT22;6948;51.216;6.778;2023-05-19T06:53:19;15.50;99.90
13754;DHT22;6948;51.216;6.778;2023-05-19T06:55:45;15.60;99.90
13754;DHT22;6948;51.216;6.778;2023-05-19T06:58:14;15.60;99.90
13754;DHT22;6948;51.216;6.778;2023-05-19T07:00:41;15.40;99.90
13754;DHT22;6948;51.216;6.778;2023-05-19T07:03:07;15.40;99.90
13754;DHT22;6948;51.216;6.778;2023-05-19T07:05:33;15.60;99.90
13754;DHT22;6948;51.216;6.778;2023-05-19T07:07:58;15.70;99.90
13754;DHT22;6948;51.216;6.778;2023-05-19T07:10:24;15.80;99.90
13754;DHT22;6948;51.216;6.778;2023-05-19T07:12:50;16.00;99.90
13754;DHT22;6948;51.216;6.778;2023-05-19T07:15:15;16.30;99.90
13754;DHT22;6948;51.216;6.778;2023-05-19T07:17:41;16.40;99.90
13754;DHT22;6948;51.216;6.778;2023-05-19T07:20:07;16.10;99.90
13754;DHT22;6948;51.216;6.778;2023-05-19T07:22:35;16.00;99.90
13754;DHT22;6948;51.216;6.778;2023-05-19T07:25:00;16.20;99.90
13754;DHT22;6948;51.216;6.778;2023-05-19T07:27:26;16.30;99.90
13754;DHT22;6948;51.216;6.778;2023-05-19T07:29:52;16.20;99.90
13754;DHT22;6948;51.216;6.778;2023-05-19T07:32:18;16.30;99.90
13754;DHT22;6948;51.216;6.778;2023-05-19T07:34:43;16.20;99.90
13754;DHT22;6948;51.216;6.778;2023-05-19T07:37:09;16.20;99.90
13754;DHT22;6948;51.216;6.778;2023-05-19T07:39:35;16.20;99.90
13754;DHT22;6948;51.216;6.778;2023-05-19T07:42:01;16.30;99.90
13754;DHT22;6948;51.216;6.778;2023-05-19T07:44:27;16.50;99.90
13754;DHT22;6948;51.216;6.778;2023-05-19T07:46:53;16.50;99.90
13754;DHT22;6948;51.216;6.778;2023-05-19T07:49:19;16.40;99.90
13754;DHT22;6948;51.216;6.778;2023-05-19T07:51:45;16.30;99.90
13754;DHT22;6948;51.216;6.778;2023-05-19T07:54:10;16.30;99.90
13754;DHT22;6948;51.216;6.778;2023-05-19T07:56:36;16.30;99.90
13754;DHT22;6948;51.216;6.778;2023-05-19T07:59:02;16.40;99.90
13754;DHT22;6948;51.216;6.778;2023-05-19T08:01:29;16.70;99.90
13754;DHT22;6948;51.216;6.778;2023-05-19T08:03:55;16.80;99.90
13754;DHT22;6948;51.216;6.778;2023-05-19T08:06:20;16.70;99.90
13754;DHT22;6948;51.216;6.778;2023-05-19T08:08:46;16.60;99.90
13754;DHT22;6948;51.216;6.778;2023-05-19T08:11:12;16.40;99.90
13754;DHT22;6948;51.216;6.778;2023-05-19T08:13:38;16.50;99.90
13754;DHT22;6948;51.216;6.778;2023-05-19T08:16:04;16.60;99.90
13754;DHT22;6948;51.216;6.778;2023-05-19T08:18:29;16.60;99.90
13754;DHT22;6948;51.216;6.778;2023-05-19T08:20:55;16.60;99.90
13754;DHT22;6948;51.216;6.778;2023-05-19T08:23:21;16.50;99.90
13754;DHT22;6948;51.216;6.778;2023-05-19T08:25:46;16.50;99.90
13754;DHT22;6948;51.216;6.778;2023-05-19T08:28:12;16.60;99.90
13754;DHT22;6948;51.216;6.778;2023-05-19T08:30:38;16.80;99.90
13754;DHT22;6948;51.216;6.778;2023-05-19T08:33:04;16.80;99.90
13754;DHT22;6948;51.216;6.778;2023-05-19T08:35:30;17.00;99.90
13754;DHT22;6948;51.216;6.778;2023-05-19T08:37:56;16.90;99.90
13754;DHT22;6948;51.216;6.778;2023-05-19T08:40:22;17.10;99.90
13754;DHT22;6948;51.216;6.778;2023-05-19T08:42:48;17.00;99.90
13754;DHT22;6948;51.216;6.778;2023-05-19T08:45:14;16.90;99.90
13754;DHT22;6948;51.216;6.778;2023-05-19T08:47:40;17.00;99.90
13754;DHT22;6948;51.216;6.778;2023-05-19T08:50:07;17.20;99.90
13754;DHT22;6948;51.216;6.778;2023-05-19T08:52:59;17.20;99.90
13754;DHT22;6948;51.216;6.778;2023-05-19T08:58:08;17.10;99.90
13754;DHT22;6948;51.216;6.778;2023-05-19T09:00:35;17.00;99.90
13754;DHT22;6948;51.216;6.778;2023-05-19T09:03:01;17.20;99.90
13754;DHT22;6948;51.216;6.778;2023-05-19T09:05:27;17.30;99.90
13754;DHT22;6948;51.216;6.778;2023-05-19T09:07:53;17.40;99.90
13754;DHT22;6948;51.216;6.778;2023-05-19T09:10:19;17.40;99.90
13754;DHT22;6948;51.216;6.778;2023-05-19T09:12:45;17.40;99.90
13754;DHT22;6948;51.216;6.778;2023-05-19T09:15:12;17.50;99.90
13754;DHT22;6948;51.216;6.778;2023-05-19T09:17:39;17.50;99.90
13754;DHT22;6948;51.216;6.778;2023-05-19T09:20:06;17.60;99.90
13754;DHT22;6948;51.216;6.778;2023-05-19T09:22:43;17.60;99.90
13754;DHT22;6948;51.216;6.778;2023-05-19T09:25:27;17.70;99.90
13754;DHT22;6948;51.216;6.778;2023-05-19T09:27:53;17.60;99.90
13754;DHT22;6948;51.216;6.778;2023-05-19T09:30:19;17.70;99.90
13754;DHT22;6948;51.216;6.778;2023-05-19T09:32:46;17.80;99.90
13754;DHT22;6948;51.216;6.778;2023-05-19T09:35:12;17.70;99.90
13754;DHT22;6948;51.216;6.778;2023-05-19T09:37:39;17.70;99.90
13754;DHT22;6948;51.216;6.778;2023-05-19T09:40:08;17.70;99.90
13754;DHT22;6948;51.216;6.778;2023-05-19T09:42:37;17.70;99.90
13754;DHT22;6948;51.216;6.778;2023-05-19T09:45:03;17.80;99.90
13754;DHT22;6948;51.216;6.778;2023-05-19T09:47:33;17.90;99.90
13754;DHT22;6948;51.216;6.778;2023-05-19T09:50:01;18.00;99.90
13754;DHT22;6948;51.216;6.778;2023-05-19T09:52:27;18.10;99.90
13754;DHT22;6948;51.216;6.778;2023-05-19T09:54:53;18.00;99.90
13754;DHT22;6948;51.216;6.778;2023-05-19T09:57:25;18.00;99.90
13754;DHT22;6948;51.216;6.778;2023-05-19T09:59:54;18.00;99.90
13754;DHT22;6948;51.216;6.778;2023-05-19T10:02:22;17.90;99.90
13754;DHT22;6948;51.216;6.778;2023-05-19T10:04:51;17.90;99.90
13754;DHT22;6948;51.216;6.778;2023-05-19T10:07:18;18.10;99.90
13754;DHT22;6948;51.216;6.778;2023-05-19T10:09:44;18.20;99.90
13754;DHT22;6948;51.216;6.778;2023-05-19T10:12:11;18.30;99.90
13754;DHT22;6948;51.216;6.778;2023-05-19T10:14:37;18.30;99.90
13754;DHT22;6948;51.216;6.778;2023-05-19T10:17:03;18.20;99.90
13754;DHT22;6948;51.216;6.778;2023-05-19T10:19:29;18.30;99.90
13754;DHT22;6948;51.216;6.778;2023-05-19T10:21:55;18.50;99.90
13754;DHT22;6948;51.216;6.778;2023-05-19T10:24:21;18.60;99.90
13754;DHT22;6948;51.216;6.778;2023-05-19T10:26:54;18.50;99.90
13754;DHT22;6948;51.216;6.778;2023-05-19T10:29:25;18.50;99.90
13754;DHT22;6948;51.216;6.778;2023-05-19T10:31:52;18.50;99.90
13754;DHT22;6948;51.216;6.778;2023-05-19T10:37:06;18.50;99.90
13754;DHT22;6948;51.216;6.778;2023-05-19T10:39:34;18.50;99.90
13754;DHT22;6948;51.216;6.778;2023-05-19T10:42:25;18.40;99.90
13754;DHT22;6948;51.216;6.778;2023-05-19T10:45:04;18.40;99.90
13754;DHT22;6948;51.216;6.778;2023-05-19T10:47:33;18.40;99.90
13754;DHT22;6948;51.216;6.778;2023-05-19T10:49:59;18.30;99.90
13754;DHT22;6948;51.216;6.778;2023-05-19T10:52:25;18.40;99.90
13754;DHT22;6948;51.216;6.778;2023-05-19T10:54:51;18.50;99.90
13754;DHT22;6948;51.216;6.778;2023-05-19T10:57:25;18.40;99.90
13754;DHT22;6948;51.216;6.778;2023-05-19T10:59:53;18.30;99.90
13754;DHT22;6948;51.216;6.778;2023-05-19T11:02:40;18.30;99.90
13754;DHT22;6948;51.216;6.778;2023-05-19T11:05:11;18.40;99.90
13754;DHT22;6948;51.216;6.778;2023-05-19T11:07:41;18.60;99.90
13754;DHT22;6948;51.216;6.778;2023-05-19T11:10:26;18.80;99.90
13754;DHT22;6948;51.216;6.778;2023-05-19T11:12:52;18.80;99.90
13754;DHT22;6948;51.216;6.778;2023-05-19T11:15:24;18.90;99.90
13754;DHT22;6948;51.216;6.778;2023-05-19T11:17:51;18.70;99.90
13754;DHT22;6948;51.216;6.778;2023-05-19T11:20:26;18.50;99.90
13754;DHT22;6948;51.216;6.778;2023-05-19T11:23:13;18.60;99.90
13754;DHT22;6948;51.216;6.778;2023-05-19T11:25:41;18.60;99.90
13754;DHT22;6948;51.216;6.778;2023-05-19T11:28:09;18.70;99.90
13754;DHT22;6948;51.216;6.778;2023-05-19T11:30:37;18.80;99.90
13754;DHT22;6948;51.216;6.778;2023-05-19T11:33:03;18.80;99.90
13754;DHT22;6948;51.216;6.778;2023-05-19T11:35:30;18.90;99.90
13754;DHT22;6948;51.216;6.778;2023-05-19T11:37:58;19.00;99.90
13754;DHT22;6948;51.216;6.778;2023-05-19T11:40:24;19.00;99.90
13754;DHT22;6948;51.216;6.778;2023-05-19T11:42:51;18.90;99.90
13754;DHT22;6948;51.216;6.778;2023-05-19T11:45:16;18.80;99.90
13754;DHT22;6948;51.216;6.778;2023-05-19T11:47:48;18.80;99.90
13754;DHT22;6948;51.216;6.778;2023-05-19T11:50:15;18.90;99.90
13754;DHT22;6948;51.216;6.778;2023-05-19T11:52:44;19.10;99.90
13754;DHT22;6948;51.216;6.778;2023-05-19T11:55:15;19.30;99.90
13754;DHT22;6948;51.216;6.778;2023-05-19T11:57:50;19.30;99.90
13754;DHT22;6948;51.216;6.778;2023-05-19T12:00:24;19.30;99.90
13754;DHT22;6948;51.216;6.778;2023-05-19T12:02:50;19.20;99.90
13754;DHT22;6948;51.216;6.778;2023-05-19T12:05:19;19.00;99.90
13754;DHT22;6948;51.216;6.778;2023-05-19T12:07:45;19.10;99.90
13754;DHT22;6948;51.216;6.778;2023-05-19T12:10:14;19.30;99.90
13754;DHT22;6948;51.216;6.778;2023-05-19T12:12:40;19.30;99.90
13754;DHT22;6948;51.216;6.778;2023-05-19T12:15:07;19.10;99.90
13754;DHT22;6948;51.216;6.778;2023-05-19T12:17:33;19.10;99.90
13754;DHT22;6948;51.216;6.778;2023-05-19T12:19:59;19.10;99.90
13754;DHT22;6948;51.216;6.778;2023-05-19T12:22:26;19.30;99.90
13754;DHT22;6948;51.216;6.778;2023-05-19T12:24:51;19.30;99.90
13754;DHT22;6948;51.216;6.778;2023-05-19T12:27:19;19.30;99.90
13754;DHT22;6948;51.216;6.778;2023-05-19T12:29:49;19.60;99.90
13754;DHT22;6948;51.216;6.778;2023-05-19T12:32:17;19.70;99.90
13754;DHT22;6948;51.216;6.778;2023-05-19T12:34:43;19.60;99.90
13754;DHT22;6948;51.216;6.778;2023-05-19T12:37:09;19.40;99.90
13754;DHT22;6948;51.216;6.778;2023-05-19T12:39:35;19.40;99.90
13754;DHT22;6948;51.216;6.778;2023-05-19T12:42:06;19.40;99.90
13754;DHT22;6948;51.216;6.778;2023-05-19T12:44:36;19.60;99.90
13754;DHT22;6948;51.216;6.778;2023-05-19T12:47:04;19.60;99.90
13754;DHT22;6948;51.216;6.778;2023-05-19T12:49:32;19.60;99.90
13754;DHT22;6948;51.216;6.778;2023-05-19T12:52:00;19.40;99.90
13754;DHT22;6948;51.216;6.778;2023-05-19T12:54:32;19.50;99.90
13754;DHT22;6948;51.216;6.778;2023-05-19T12:56:58;19.50;99.90
13754;DHT22;6948;51.216;6.778;2023-05-19T12:59:24;19.50;99.90
13754;DHT22;6948;51.216;6.778;2023-05-19T13:01:55;19.70;99.90
13754;DHT22;6948;51.216;6.778;2023-05-19T13:04:22;19.60;99.90
13754;DHT22;6948;51.216;6.778;2023-05-19T13:06:47;19.70;99.90
13754;DHT22;6948;51.216;6.778;2023-05-19T13:09:14;19.70;99.90
13754;DHT22;6948;51.216;6.778;2023-05-19T13:11:41;19.60;99.90
13754;DHT22;6948;51.216;6.778;2023-05-19T13:14:08;19.60;99.90
13754;DHT22;6948;51.216;6.778;2023-05-19T13:16:34;19.40;99.90
13754;DHT22;6948;51.216;6.778;2023-05-19T13:19:00;19.50;99.90
13754;DHT22;6948;51.216;6.778;2023-05-19T13:21:26;19.60;99.90
13754;DHT22;6948;51.216;6.778;2023-05-19T13:23:52;19.70;99.90
13754;DHT22;6948;51.216;6.778;2023-05-19T13:26:17;19.80;99.90
13754;DHT22;6948;51.216;6.778;2023-05-19T13:28:43;20.00;99.90
13754;DHT22;6948;51.216;6.778;2023-05-19T13:31:09;20.20;99.90
13754;DHT22;6948;51.216;6.778;2023-05-19T13:33:34;20.20;99.90
13754;DHT22;6948;51.216;6.778;2023-05-19T13:36:00;20.10;99.90
13754;DHT22;6948;51.216;6.778;2023-05-19T13:38:26;20.10;99.90
13754;DHT22;6948;51.216;6.778;2023-05-19T13:40:51;20.10;99.90
13754;DHT22;6948;51.216;6.778;2023-05-19T13:43:17;20.10;99.90
13754;DHT22;6948;51.216;6.778;2023-05-19T13:45:43;20.20;99.90
13754;DHT22;6948;51.216;6.778;2023-05-19T13:48:09;20.20;99.90
13754;DHT22;6948;51.216;6.778;2023-05-19T13:50:36;20.30;99.90
13754;DHT22;6948;51.216;6.778;2023-05-19T13:53:02;20.20;99.90
13754;DHT22;6948;51.216;6.778;2023-05-19T13:55:28;20.10;99.90
13754;DHT22;6948;51.216;6.778;2023-05-19T13:57:53;20.20;99.90
13754;DHT22;6948;51.216;6.778;2023-05-19T14:00:19;20.20;99.90
13754;DHT22;6948;51.216;6.778;2023-05-19T14:02:46;20.30;99.90
13754;DHT22;6948;51.216;6.778;2023-05-19T14:05:11;20.30;99.90
13754;DHT22;6948;51.216;6.778;2023-05-19T14:07:37;20.30;99.90
13754;DHT22;6948;51.216;6.778;2023-05-19T14:10:03;20.20;99.90
13754;DHT22;6948;51.216;6.778;2023-05-19T14:12:31;20.00;99.90
13754;DHT22;6948;51.216;6.778;2023-05-19T14:14:57;20.00;99.90
13754;DHT22;6948;51.216;6.778;2023-05-19T14:17:22;20.10;99.90
13754;DHT22;6948;51.216;6.778;2023-05-19T14:19:48;20.20;99.90
13754;DHT22;6948;51.216;6.778;2023-05-19T14:22:14;20.30;99.90
13754;DHT22;6948;51.216;6.778;2023-05-19T14:24:39;20.30;99.90
13754;DHT22;6948;51.216;6.778;2023-05-19T14:27:05;20.30;99.90
13754;DHT22;6948;51.216;6.778;2023-05-19T14:29:31;20.40;99.90
13754;DHT22;6948;51.216;6.778;2023-05-19T14:31:57;20.30;99.90
13754;DHT22;6948;51.216;6.778;2023-05-19T14:34:22;20.30;99.90
13754;DHT22;6948;51.216;6.778;2023-05-19T14:36:48;20.50;99.90
13754;DHT22;6948;51.216;6.778;2023-05-19T14:39:13;20.50;99.90
13754;DHT22;6948;51.216;6.778;2023-05-19T14:41:39;20.50;99.90
13754;DHT22;6948;51.216;6.778;2023-05-19T14:44:05;20.30;99.90
13754;DHT22;6948;51.216;6.778;2023-05-19T14:46:30;20.30;99.90
13754;DHT22;6948;51.216;6.778;2023-05-19T14:48:56;20.40;99.90
13754;DHT22;6948;51.216;6.778;2023-05-19T14:51:22;20.40;99.90
13754;DHT22;6948;51.216;6.778;2023-05-19T14:53:47;20.20;99.90
13754;DHT22;6948;51.216;6.778;2023-05-19T14:56:14;20.10;99.90
13754;DHT22;6948;51.216;6.778;2023-05-19T14:58:40;20.00;99.90
13754;DHT22;6948;51.216;6.778;2023-05-19T15:01:06;19.90;99.90
13754;DHT22;6948;51.216;6.778;2023-05-19T15:03:31;20.00;99.90
13754;DHT22;6948;51.216;6.778;2023-05-19T15:05:57;20.00;99.90
13754;DHT22;6948;51.216;6.778;2023-05-19T15:08:23;20.10;99.90
13754;DHT22;6948;51.216;6.778;2023-05-19T15:10:49;20.10;99.90
13754;DHT22;6948;51.216;6.778;2023-05-19T15:13:15;20.20;99.90
13754;DHT22;6948;51.216;6.778;2023-05-19T15:15:43;20.10;99.90
13754;DHT22;6948;51.216;6.778;2023-05-19T15:18:09;20.10;99.90
13754;DHT22;6948;51.216;6.778;2023-05-19T15:20:35;20.10;99.90
13754;DHT22;6948;51.216;6.778;2023-05-19T15:23:01;20.30;99.90
13754;DHT22;6948;51.216;6.778;2023-05-19T15:25:26;20.30;99.90
13754;DHT22;6948;51.216;6.778;2023-05-19T15:27:52;20.30;99.90
13754;DHT22;6948;51.216;6.778;2023-05-19T15:30:18;20.30;99.90
13754;DHT22;6948;51.216;6.778;2023-05-19T15:32:43;20.40;99.90
13754;DHT22;6948;51.216;6.778;2023-05-19T15:35:09;20.50;99.90
13754;DHT22;6948;51.216;6.778;2023-05-19T15:37:35;20.50;99.90
13754;DHT22;6948;51.216;6.778;2023-05-19T15:40:00;20.50;99.90
13754;DHT22;6948;51.216;6.778;2023-05-19T15:42:26;20.60;99.90
13754;DHT22;6948;51.216;6.778;2023-05-19T15:44:51;20.60;99.90
13754;DHT22;6948;51.216;6.778;2023-05-19T15:47:17;20.60;99.90
13754;DHT22;6948;51.216;6.778;2023-05-19T15:49:43;20.70;99.90
13754;DHT22;6948;51.216;6.778;2023-05-19T15:52:08;20.60;99.90
13754;DHT22;6948;51.216;6.778;2023-05-19T15:54:34;20.50;99.90
13754;DHT22;6948;51.216;6.778;2023-05-19T15:57:00;20.30;99.90
13754;DHT22;6948;51.216;6.778;2023-05-19T15:59:26;20.10;99.90
13754;DHT22;6948;51.216;6.778;2023-05-19T16:01:51;20.10;99.90
13754;DHT22;6948;51.216;6.778;2023-05-19T16:04:17;20.20;99.90
13754;DHT22;6948;51.216;6.778;2023-05-19T16:06:42;20.20;99.90
13754;DHT22;6948;51.216;6.778;2023-05-19T16:09:09;20.30;99.90
13754;DHT22;6948;51.216;6.778;2023-05-19T16:11:34;20.40;99.90